Healy, AK

6:57 PM AKDT on July 13, 2014 (GMT -0800)
Cantwell (PATW) Elev 2188 ft | 63.39 °N, 148.96 °W | Change Station

Current weather conditions updated 1051 days ago

Rain
Rain
48 °F
Feels Like 48 °F
N
18
Wind Variable Wind from SSW
Gusts 24 mph

Today
High -- | Low -- °F
--% Chance of Precip.
Yesterday
High -- | Low -- °F
Precip. -- in
4:06 AM 11:51 PM
Waning Gibbous, 96% visible
Pressure 29.75 in
Visibility 10.0 miles
Clouds Scattered Clouds 4000 ft
Dew Point 43 °F
Humidity 79%
Rainfall 0.00 in
Snow Depth Not available.
UV 2 out of 12
Pollen Not available.
Air Quality Not available.
Flu Activity Sporadic
METAR PATW 271849Z 10005KT 10SM SCT040 11/09 A2975 RMK EPO NOSPECI

More Conditions Fewer Conditions

Pressure 29.75 in
Visibility 10.0 miles
Clouds Scattered Clouds 4000 ft
Dew Point 43 °F
Humidity 79%
Rainfall 0.00 in
Snow Depth Not available.
UV 2 out of 12
Pollen Not available.
Air Quality Not available.
Flu Activity Sporadic
METAR PATW 271849Z 10005KT 10SM SCT040 11/09 A2975 RMK EPO NOSPECI

More Conditions Fewer Conditions

10-Day Weather Forecast

Almanac

Astronomy

Jul. 13, 2014 Rise Set
Actual Time 4:06 AM AKDT 11:51 PM AKDT
Civil Twilight 2:32 AM AKDT 1:27 AM AKDT
Nautical Twilight Sun does not rise Sun does not rise
Astronomical Twilight Sun does not rise Sun does not rise
Moon 11:17 PM AKDT (7/13) 7:02 AM AKDT (7/13)
Length of Visible Light 22h 55m
Length of Day
19h 44m
Tomorrow will be 5m 26s shorter.
Waning Gibbous, 96% of the Moon is Illuminated
Today
Waning Gibbous
Jul 18
Last Quarter
Jul 26
New
Aug 3
First Quarter
Aug 10
Full

Today's Extremes

State Highs State Lows

Community

WunderPhotos

Upload Photos

1,733,536 photos uploaded!

Nearby

Snow Depth

Station Depth Elevation
Granite Creek 0 in 1240 ft
Munson Ridge 1 in 3100 ft
Little Chena Ridge 1 in 2000 ft
Monument Creek 0 in 1850 ft
Susitna Valley High 2 in 375 ft

Earthquake Activity

City Distance Mag. Time & Date
No recent earthquake activity has been reported nearby.
Minimum magnitude displayed is 2.5.

Coastal Water Temperatures

Place Temperature
No Stations Reporting

Nearby Weather Stations

Station Location Temp. Dew Point Humidity Wind Precip. Elev Updated Type
AKDOT Parks Highway @ Antler Creek MP 24, Healy, AK 61 °F 39 °F 43% SSE  at  21 mph 0.00 in / hr 1817 ft 6:20 PM AKDT MADIS
RAWS DENALI VISITOR CENTER AK, Healy, AK 66 °F 38 °F 36% SE  at  6 mph 0.00 in / hr 1649 ft 6:27 PM AKDT MADIS
Subdivision - Sulfide (Tench), Healy, AK 61.3 °F 37 °F 40% SSW  at  10.7 mph 0.00 in / hr 1374 ft 6:57 PM AKDT Rapid Fire

Show More Stations Show Fewer Stations